Merrill, Maine
Current Conditions -  °F | °C
As of 6:31 AM on Friday 24 Oct 2014 (Local Time) from KHUL Reporting Station
Heavy Rain Heavy Rain  
Wind Chill: 36°   Ceiling: 500
Heat Index: 42°   Visibility: 3mi
Dew Point: 41°   Wind: 12mph
Humidity: 96%   Direction: 360°N
Pressure: 29.75"   Gusts: NA
Location:  46.2367°N, 68.3001°W
Report Text: KHUL 241031Z AUTO 36010KT 3SM +RA BR BKN005 OVC022 06/05 A2975 RMK AO2 P0014 T00560050
Loading
Personal Weather Stations






























Interactive Weather Map
Tropical Storm Tracking
New forecast layout! Learn more

10-Day Weather Forecast

Advertisements
Track Severe Weather on mobile